createdAt,value
2019-04-27T00:00:45.628Z,69.80
2019-04-27T00:03:36.514Z,69.90
2019-04-27T00:06:13.536Z,70.05
2019-04-27T00:09:03.563Z,70.20
2019-04-27T00:11:42.175Z,70.53
2019-04-27T00:14:15.012Z,70.20
2019-04-27T00:17:03.832Z,69.80
2019-04-27T00:19:51.520Z,70.10
2019-04-27T00:22:23.792Z,69.99
2019-04-27T00:24:54.277Z,70.98
2019-04-27T00:27:24.935Z,70.17
2019-04-27T00:29:55.597Z,70.44
2019-04-27T00:32:26.451Z,70.58
2019-04-27T00:34:57.055Z,70.53
2019-04-27T00:37:46.715Z,70.57
2019-04-27T00:40:18.971Z,70.86
2019-04-27T00:42:49.607Z,71.64
2019-04-27T00:45:20.365Z,71.70
2019-04-27T00:47:58.719Z,71.71
2019-04-27T00:50:23.550Z,71.66
2019-04-27T00:52:59.262Z,71.56
2019-04-27T00:55:43.828Z,72.17
2019-04-27T00:58:33.043Z,71.66
2019-04-27T01:01:08.139Z,72.02
2019-04-27T01:03:47.233Z,72.59
2019-04-27T01:06:18.089Z,72.95
2019-04-27T01:08:48.865Z,72.80
2019-04-27T01:11:19.559Z,72.28
2019-04-27T01:13:50.174Z,72.44
2019-04-27T01:16:22.439Z,72.90
2019-04-27T01:18:53.018Z,72.75
2019-04-27T01:21:23.612Z,72.05
2019-04-27T01:23:54.248Z,71.93
2019-04-27T01:26:33.602Z,72.67
2019-04-27T01:29:10.306Z,72.28
2019-04-27T01:31:44.323Z,72.36
2019-04-27T01:34:14.893Z,73.06
2019-04-27T01:36:45.556Z,72.30
2019-04-27T01:39:18.853Z,73.05
2019-04-27T01:41:49.730Z,73.45
2019-04-27T01:44:20.399Z,72.47
2019-04-27T01:46:51.053Z,73.05
2019-04-27T01:49:30.874Z,73.13
2019-04-27T01:52:07.381Z,73.21
2019-04-27T01:54:39.254Z,74.00
2019-04-27T01:57:10.566Z,73.62
2019-04-27T01:59:41.198Z,73.72
2019-04-27T02:02:25.222Z,73.06
2019-04-27T02:05:13.709Z,73.47
2019-04-27T02:07:45.453Z,74.00
2019-04-27T02:10:21.468Z,73.14
2019-04-27T02:12:52.051Z,73.69
2019-04-27T02:15:36.883Z,73.41
2019-04-27T02:18:09.333Z,73.32
2019-04-27T02:20:49.036Z,72.82
2019-04-27T02:23:19.444Z,73.14
2019-04-27T02:25:50.138Z,72.82
2019-04-27T02:28:30.386Z,73.40
2019-04-27T02:31:11.968Z,73.34
2019-04-27T02:33:44.212Z,72.68
2019-04-27T02:36:20.189Z,73.40
2019-04-27T02:38:53.122Z,71.92
2019-04-27T02:41:30.285Z,72.45
2019-04-27T02:44:02.501Z,73.03
2019-04-27T02:46:34.154Z,72.63
2019-04-27T02:49:07.203Z,72.31
2019-04-27T02:51:55.564Z,72.52
2019-04-27T02:54:26.159Z,72.86
2019-04-27T02:56:59.217Z,72.66
2019-04-27T02:59:30.352Z,73.33
2019-04-27T03:02:02.738Z,72.83
2019-04-27T03:04:33.469Z,72.43
2019-04-27T03:07:04.198Z,72.43
2019-04-27T03:09:40.606Z,72.87
2019-04-27T03:12:11.453Z,72.45
2019-04-27T03:14:50.603Z,73.08
2019-04-27T03:17:39.716Z,73.24
2019-04-27T03:20:15.155Z,73.19
2019-04-27T03:22:49.443Z,73.13
2019-04-27T03:25:21.665Z,73.46
2019-04-27T03:27:54.169Z,73.07
2019-04-27T03:30:25.090Z,73.11
2019-04-27T03:33:02.865Z,73.31
2019-04-27T03:35:42.976Z,73.63
2019-04-27T03:38:13.078Z,73.12
2019-04-27T03:40:43.664Z,73.12
2019-04-27T03:43:15.871Z,73.66
2019-04-27T03:45:46.635Z,73.30
2019-04-27T03:48:17.318Z,73.22
2019-04-27T03:50:52.309Z,73.06
2019-04-27T03:53:39.736Z,73.38
2019-04-27T03:56:21.928Z,74.28
2019-04-27T03:58:59.805Z,73.59
2019-04-27T04:01:31.555Z,73.58
2019-04-27T04:04:03.263Z,72.81
2019-04-27T04:06:49.494Z,73.13
2019-04-27T04:09:22.857Z,73.15
2019-04-27T04:12:02.257Z,73.24
2019-04-27T04:14:36.827Z,73.27
2019-04-27T04:17:09.852Z,73.11
2019-04-27T04:19:53.927Z,73.20
2019-04-27T04:22:17.041Z,73.77
2019-04-27T04:24:47.754Z,73.21
2019-04-27T04:27:26.138Z,72.18
2019-04-27T04:29:59.397Z,72.80
2019-04-27T04:32:30.373Z,72.86
2019-04-27T04:35:21.220Z,73.10
2019-04-27T04:37:53.046Z,72.54
2019-04-27T04:40:25.352Z,73.36
2019-04-27T04:43:03.275Z,73.54
2019-04-27T04:45:40.858Z,72.80
2019-04-27T04:48:13.124Z,73.13
2019-04-27T04:50:50.014Z,73.04
2019-04-27T04:53:20.833Z,73.10
2019-04-27T04:55:51.613Z,72.97
2019-04-27T04:58:22.291Z,73.83
2019-04-27T05:00:52.780Z,73.28
2019-04-27T05:03:23.442Z,73.61
2019-04-27T05:05:54.103Z,73.51
2019-04-27T05:08:24.644Z,72.45
2019-04-27T05:10:59.513Z,72.06
2019-04-27T05:13:35.014Z,72.68
2019-04-27T05:16:05.594Z,72.73
2019-04-27T05:18:36.253Z,72.96
2019-04-27T05:21:14.532Z,72.50
2019-04-27T05:23:49.296Z,72.58
2019-04-27T05:26:20.817Z,72.08
2019-04-27T05:28:51.655Z,72.16
2019-04-27T05:31:22.214Z,71.77
2019-04-27T05:33:52.884Z,71.69
2019-04-27T05:36:29.659Z,71.27
2019-04-27T05:39:18.169Z,71.16
2019-04-27T05:41:49.801Z,71.71
2019-04-27T05:44:25.065Z,71.09
2019-04-27T05:46:58.767Z,72.05
2019-04-27T05:49:44.108Z,71.79
2019-04-27T05:52:29.431Z,71.99
2019-04-27T05:55:01.154Z,72.21
2019-04-27T05:57:41.459Z,72.80
2019-04-27T06:00:15.503Z,73.28
2019-04-27T06:02:46.185Z,72.60
2019-04-27T06:05:18.873Z,73.31
2019-04-27T06:07:51.229Z,73.69
2019-04-27T06:10:21.900Z,73.90
2019-04-27T06:12:54.794Z,73.65
2019-04-27T06:15:25.413Z,75.09
2019-04-27T06:17:57.002Z,74.84
2019-04-27T06:20:28.579Z,74.70
2019-04-27T06:23:01.352Z,74.80
2019-04-27T06:25:32.077Z,75.19
2019-04-27T06:28:02.782Z,75.91
2019-04-27T06:30:33.444Z,76.80
2019-04-27T06:33:04.161Z,76.34
2019-04-27T06:35:34.724Z,76.29
2019-04-27T06:38:05.426Z,76.41
2019-04-27T06:40:36.116Z,77.12
2019-04-27T06:43:08.512Z,76.49
2019-04-27T06:45:41.231Z,77.50
2019-04-27T06:48:11.872Z,78.06
2019-04-27T06:50:42.653Z,79.19
2019-04-27T06:53:13.375Z,78.20
2019-04-27T06:55:58.594Z,78.79
2019-04-27T06:58:29.374Z,79.18
2019-04-27T07:01:00.056Z,79.99
2019-04-27T07:03:36.257Z,80.44
2019-04-27T07:06:08.720Z,79.64
2019-04-27T07:08:40.484Z,80.35
2019-04-27T07:11:19.811Z,80.63
2019-04-27T07:13:51.721Z,80.30
2019-04-27T07:16:22.428Z,79.52
2019-04-27T07:18:59.321Z,79.10
2019-04-27T07:21:31.171Z,80.13
2019-04-27T07:24:01.781Z,79.14
2019-04-27T07:26:32.524Z,79.63
2019-04-27T07:29:05.166Z,80.42
2019-04-27T07:31:49.796Z,80.46
2019-04-27T07:34:21.405Z,80.51
2019-04-27T07:36:52.165Z,80.11
2019-04-27T07:39:22.849Z,80.61
2019-04-27T07:41:59.497Z,81.45
2019-04-27T07:44:35.510Z,81.31
2019-04-27T07:47:19.733Z,80.65
2019-04-27T07:49:56.605Z,81.29
2019-04-27T07:52:41.414Z,81.56
2019-04-27T07:55:14.004Z,81.68
2019-04-27T07:57:46.762Z,81.33
2019-04-27T08:00:19.048Z,80.98
2019-04-27T08:02:49.670Z,82.31
2019-04-27T08:05:20.391Z,81.79
2019-04-27T08:07:51.238Z,81.45
2019-04-27T08:10:24.039Z,81.06
2019-04-27T08:12:54.744Z,81.02
2019-04-27T08:15:25.373Z,82.08
2019-04-27T08:17:56.091Z,82.48
2019-04-27T08:20:29.409Z,81.86
2019-04-27T08:23:01.364Z,82.58
2019-04-27T08:25:33.143Z,83.41
2019-04-27T08:28:05.472Z,82.58
2019-04-27T08:30:46.678Z,82.66
2019-04-27T08:33:18.963Z,83.17
2019-04-27T08:35:49.729Z,83.88
2019-04-27T08:38:21.371Z,83.68
2019-04-27T08:40:52.067Z,83.40
2019-04-27T08:43:23.659Z,84.38
2019-04-27T08:45:55.300Z,84.34
2019-04-27T08:48:34.713Z,84.79
2019-04-27T08:51:02.358Z,84.11
2019-04-27T08:53:40.315Z,84.34
2019-04-27T08:56:13.215Z,83.76
2019-04-27T08:58:43.900Z,83.94
2019-04-27T09:01:18.336Z,84.11
2019-04-27T09:03:49.560Z,85.03
2019-04-27T09:06:25.754Z,84.81
2019-04-27T09:08:59.385Z,83.75
2019-04-27T09:11:39.122Z,85.92
2019-04-27T09:14:21.566Z,84.85
2019-04-27T09:17:02.945Z,84.60
2019-04-27T09:19:52.334Z,84.02
2019-04-27T09:22:25.181Z,84.87
2019-04-27T09:25:05.538Z,85.48
2019-04-27T09:27:39.464Z,85.44
2019-04-27T09:30:13.540Z,85.39
2019-04-27T09:32:49.440Z,85.01
2019-04-27T09:35:22.380Z,84.39
2019-04-27T09:37:56.293Z,84.37
2019-04-27T09:40:33.498Z,84.37
2019-04-27T09:43:04.222Z,83.64
2019-04-27T09:45:37.810Z,77.87
2019-04-27T09:48:08.999Z,78.01
2019-04-27T09:50:39.688Z,77.78
2019-04-27T09:53:12.755Z,78.96
2019-04-27T09:55:44.480Z,78.07
2019-04-27T09:58:16.026Z,76.32
2019-04-27T10:00:49.579Z,77.49
2019-04-27T10:03:24.193Z,78.44
2019-04-27T10:05:57.184Z,77.23
2019-04-27T10:08:28.921Z,77.42
2019-04-27T10:10:59.602Z,79.32
2019-04-27T10:13:31.238Z,77.16
2019-04-27T10:16:01.945Z,75.29
2019-04-27T10:18:32.596Z,78.27
2019-04-27T10:21:03.337Z,77.83
2019-04-27T10:23:34.012Z,76.06
2019-04-27T10:26:05.838Z,75.59
2019-04-27T10:28:37.276Z,76.08
2019-04-27T10:31:08.041Z,77.96
2019-04-27T10:33:41.971Z,76.65
2019-04-27T10:36:13.662Z,74.90
2019-04-27T10:38:55.603Z,77.15
2019-04-27T10:41:26.360Z,76.98
2019-04-27T10:44:01.110Z,77.86
2019-04-27T10:46:31.859Z,76.82
2019-04-27T10:49:05.971Z,77.28
2019-04-27T10:51:41.840Z,77.00
2019-04-27T10:54:12.548Z,77.40
2019-04-27T10:56:43.215Z,74.51
2019-04-27T10:59:13.800Z,74.81
2019-04-27T11:01:45.934Z,71.43
2019-04-27T11:04:18.563Z,69.43
2019-04-27T11:07:07.212Z,70.53
2019-04-27T11:09:39.053Z,72.24
2019-04-27T11:12:09.775Z,71.91
2019-04-27T11:14:46.451Z,74.58
2019-04-27T11:17:23.689Z,71.72
2019-04-27T11:19:54.289Z,72.46
2019-04-27T11:22:26.039Z,72.47
2019-04-27T11:24:56.786Z,69.93
2019-04-27T11:27:27.555Z,73.66
2019-04-27T11:29:58.147Z,75.19
2019-04-27T11:32:36.269Z,76.79
2019-04-27T11:35:18.014Z,74.91
2019-04-27T11:37:50.357Z,74.63
2019-04-27T11:40:22.669Z,74.53
2019-04-27T11:42:58.663Z,75.20
2019-04-27T11:45:29.316Z,74.30
2019-04-27T11:47:59.946Z,75.11
2019-04-27T11:50:30.496Z,72.28
2019-04-27T11:53:01.197Z,75.53
2019-04-27T11:55:32.925Z,75.07
2019-04-27T11:58:30.348Z,77.37
2019-04-27T12:01:01.972Z,78.22
2019-04-27T12:03:32.620Z,76.52
2019-04-27T12:06:03.277Z,78.55
2019-04-27T12:08:45.677Z,77.06
2019-04-27T12:11:17.192Z,78.65
2019-04-27T12:13:48.033Z,76.98
2019-04-27T12:16:21.112Z,76.56
2019-04-27T12:18:52.861Z,72.95
2019-04-27T12:21:24.540Z,74.46
2019-04-27T12:23:55.247Z,73.10
2019-04-27T12:26:30.322Z,75.71
2019-04-27T12:29:06.243Z,73.25
2019-04-27T12:31:44.874Z,75.68
2019-04-27T12:34:16.919Z,73.75
2019-04-27T12:36:48.616Z,75.00
2019-04-27T12:39:19.208Z,72.79
2019-04-27T12:41:50.012Z,75.66
2019-04-27T12:44:21.625Z,74.25
2019-04-27T12:46:52.178Z,74.27
2019-04-27T12:49:22.687Z,75.00
2019-04-27T12:51:53.358Z,74.54
2019-04-27T12:54:26.608Z,74.63
2019-04-27T12:57:06.058Z,72.22
2019-04-27T12:59:56.622Z,72.96
2019-04-27T13:02:29.115Z,74.51
2019-04-27T13:05:02.010Z,70.74
2019-04-27T13:07:32.633Z,66.38
2019-04-27T13:10:03.465Z,68.97
2019-04-27T13:12:35.763Z,69.74
2019-04-27T13:15:08.021Z,68.51
2019-04-27T13:17:38.652Z,66.59
2019-04-27T13:20:09.600Z,64.65
2019-04-27T13:22:40.173Z,65.30
2019-04-27T13:25:10.887Z,67.57
2019-04-27T13:27:41.573Z,65.78
2019-04-27T13:30:12.760Z,66.27
2019-04-27T13:32:43.412Z,66.49
2019-04-27T13:35:15.829Z,65.27
2019-04-27T13:37:52.970Z,61.42
2019-04-27T13:40:23.700Z,62.37
2019-04-27T13:42:57.543Z,61.30
2019-04-27T13:45:53.072Z,62.86
2019-04-27T13:48:26.071Z,61.40
2019-04-27T13:51:02.346Z,64.48
2019-04-27T13:53:32.944Z,60.87
2019-04-27T13:56:09.692Z,60.41
2019-04-27T13:59:03.353Z,62.00
2019-04-27T14:01:34.701Z,60.18
2019-04-27T14:04:07.627Z,61.05
2019-04-27T14:06:38.352Z,59.02
2019-04-27T14:09:09.333Z,58.27
2019-04-27T14:11:41.959Z,58.43
2019-04-27T14:14:12.698Z,59.75
2019-04-27T14:16:46.860Z,59.49
2019-04-27T14:19:18.929Z,60.42
2019-04-27T14:21:56.219Z,61.43
2019-04-27T14:24:31.890Z,61.35
2019-04-27T14:27:11.082Z,61.71
2019-04-27T14:29:41.770Z,62.75
2019-04-27T14:32:12.758Z,59.26
2019-04-27T14:34:54.530Z,58.58
2019-04-27T14:37:29.717Z,58.78
2019-04-27T14:40:01.536Z,60.38
2019-04-27T14:42:39.888Z,59.87
2019-04-27T14:45:15.174Z,59.52
2019-04-27T14:47:46.129Z,59.22
2019-04-27T14:50:19.946Z,57.41
2019-04-27T14:52:55.965Z,58.94
2019-04-27T14:55:30.103Z,58.11
2019-04-27T14:58:02.504Z,58.85
2019-04-27T15:00:33.402Z,58.73
2019-04-27T15:03:06.489Z,59.73
2019-04-27T15:05:37.490Z,60.84
2019-04-27T15:08:13.890Z,63.53
2019-04-27T15:10:46.427Z,66.04
2019-04-27T15:13:18.773Z,68.78
2019-04-27T15:15:49.967Z,70.69
2019-04-27T15:18:29.646Z,72.36
2019-04-27T15:21:04.555Z,75.30
2019-04-27T15:23:35.307Z,73.08
2019-04-27T15:26:08.217Z,72.77
2019-04-27T15:28:49.392Z,75.46
2019-04-27T15:31:35.588Z,75.64
2019-04-27T15:34:27.629Z,75.64
2019-04-27T15:37:05.384Z,77.30
2019-04-27T15:39:58.297Z,73.55
2019-04-27T15:42:31.972Z,69.36
2019-04-27T15:45:03.836Z,65.85
2019-04-27T15:47:38.322Z,66.29
2019-04-27T15:50:23.472Z,67.27
2019-04-27T15:53:02.813Z,64.87
2019-04-27T15:55:36.984Z,65.62
2019-04-27T15:58:09.757Z,68.18
2019-04-27T16:00:56.208Z,64.72
2019-04-27T16:03:27.208Z,64.98
2019-04-27T16:05:55.648Z,66.57
2019-04-27T16:08:28.664Z,67.36
2019-04-27T16:11:02.500Z,65.62
2019-04-27T16:13:38.251Z,68.23
2019-04-27T16:16:11.097Z,68.09
2019-04-27T16:18:41.878Z,68.50
2019-04-27T16:21:12.575Z,68.69
2019-04-27T16:23:48.136Z,66.65
2019-04-27T16:26:20.818Z,68.39
2019-04-27T16:28:53.362Z,69.03
2019-04-27T16:31:31.490Z,70.65
2019-04-27T16:34:01.603Z,72.00
2019-04-27T16:36:32.067Z,73.33
2019-04-27T16:39:08.384Z,71.43
2019-04-27T16:41:41.973Z,71.40
2019-04-27T16:44:11.931Z,68.95
2019-04-27T16:46:43.269Z,66.63
2019-04-27T16:49:18.799Z,66.25
2019-04-27T16:51:53.325Z,66.09
2019-04-27T16:54:32.509Z,68.51
2019-04-27T16:57:21.140Z,67.84
2019-04-27T16:59:57.525Z,67.89
2019-04-27T17:02:45.784Z,70.08
2019-04-27T17:05:17.870Z,70.20
2019-04-27T17:07:55.558Z,63.20
2019-04-27T17:10:30.863Z,62.36
2019-04-27T17:13:01.561Z,61.59
2019-04-27T17:15:53.626Z,59.62
2019-04-27T17:18:25.528Z,62.14
2019-04-27T17:21:02.777Z,61.04
2019-04-27T17:23:35.016Z,60.51
2019-04-27T17:26:20.627Z,63.57
2019-04-27T17:28:48.548Z,63.70
2019-04-27T17:31:21.689Z,64.52
2019-04-27T17:33:58.643Z,68.68
2019-04-27T17:36:34.344Z,71.07
2019-04-27T17:39:08.529Z,70.25
2019-04-27T17:41:49.173Z,71.53
2019-04-27T17:44:19.303Z,71.34
2019-04-27T17:46:51.152Z,71.80
2019-04-27T17:49:21.147Z,69.40
2019-04-27T17:51:58.529Z,71.94
2019-04-27T17:54:47.468Z,73.58
2019-04-27T17:57:17.899Z,75.21
2019-04-27T17:59:58.371Z,74.68
2019-04-27T18:02:23.322Z,76.71
2019-04-27T18:04:54.048Z,76.41
2019-04-27T18:07:27.735Z,75.64
2019-04-27T18:10:22.813Z,76.10
2019-04-27T18:12:48.586Z,76.50
2019-04-27T18:15:20.413Z,76.07
2019-04-27T18:17:54.858Z,77.08
2019-04-27T18:20:28.937Z,76.69
2019-04-27T18:23:02.386Z,77.73
2019-04-27T18:25:35.620Z,79.03
2019-04-27T18:28:31.838Z,77.91
2019-04-27T18:31:04.183Z,78.66
2019-04-27T18:33:37.248Z,78.59
2019-04-27T18:36:14.232Z,78.63
2019-04-27T18:38:45.060Z,79.10
2019-04-27T18:41:20.191Z,78.64
2019-04-27T18:43:55.199Z,79.69
2019-04-27T18:46:25.138Z,77.79
2019-04-27T18:49:00.704Z,78.30
2019-04-27T18:51:52.630Z,76.40
2019-04-27T18:54:23.651Z,75.70
2019-04-27T18:57:04.122Z,78.24
2019-04-27T18:59:31.902Z,78.73
2019-04-27T19:02:12.038Z,76.19
2019-04-27T19:04:50.199Z,76.79
2019-04-27T19:07:20.891Z,76.13
2019-04-27T19:09:59.612Z,73.34
2019-04-27T19:12:30.312Z,72.83
2019-04-27T19:15:01.908Z,72.54
2019-04-27T19:17:33.596Z,74.68
2019-04-27T19:20:04.686Z,75.79
2019-04-27T19:22:41.409Z,75.25
2019-04-27T19:25:33.827Z,76.41
2019-04-27T19:28:18.635Z,75.02
2019-04-27T19:31:09.349Z,76.00
2019-04-27T19:33:40.970Z,73.48
2019-04-27T19:36:15.228Z,75.53
2019-04-27T19:38:58.369Z,75.53
2019-04-27T19:41:38.182Z,76.28
2019-04-27T19:44:10.235Z,74.86
2019-04-27T19:46:41.005Z,72.29
2019-04-27T19:49:13.009Z,74.48
2019-04-27T19:51:54.075Z,73.41
2019-04-27T19:54:30.284Z,73.26
2019-04-27T19:57:01.079Z,74.41
2019-04-27T19:59:40.638Z,74.95
2019-04-27T20:02:20.618Z,73.31
2019-04-27T20:04:55.106Z,73.60
2019-04-27T20:07:28.614Z,74.73
2019-04-27T20:10:02.131Z,76.46
2019-04-27T20:12:38.763Z,76.81
2019-04-27T20:15:09.708Z,76.91
2019-04-27T20:17:42.520Z,76.53
2019-04-27T20:20:16.400Z,77.42
2019-04-27T20:22:50.810Z,77.99
2019-04-27T20:25:22.170Z,78.02
2019-04-27T20:28:00.898Z,78.09
2019-04-27T20:30:32.032Z,79.20
2019-04-27T20:33:04.994Z,77.85
2019-04-27T20:35:37.929Z,77.64
2019-04-27T20:38:12.955Z,77.30
2019-04-27T20:40:43.721Z,76.40
2019-04-27T20:43:17.479Z,77.08
2019-04-27T20:46:11.859Z,77.40
2019-04-27T20:48:43.701Z,76.51
2019-04-27T20:51:43.857Z,76.98
2019-04-27T20:54:15.016Z,76.59
2019-04-27T20:56:45.627Z,77.32
2019-04-27T20:59:18.481Z,76.99
2019-04-27T21:01:51.177Z,77.64
2019-04-27T21:04:36.986Z,76.93
2019-04-27T21:07:10.961Z,77.10
2019-04-27T21:09:41.822Z,77.39
2019-04-27T21:12:18.104Z,76.93
2019-04-27T21:14:48.849Z,77.39
2019-04-27T21:17:19.550Z,77.16
2019-04-27T21:19:51.544Z,78.80
2019-04-27T21:22:26.530Z,78.54
2019-04-27T21:24:58.155Z,78.06
2019-04-27T21:27:31.802Z,77.48
2019-04-27T21:30:06.305Z,77.38
2019-04-27T21:32:37.986Z,77.05
2019-04-27T21:35:10.924Z,77.55
2019-04-27T21:37:41.617Z,76.68
2019-04-27T21:40:21.390Z,77.11
2019-04-27T21:42:56.759Z,75.08
2019-04-27T21:45:27.566Z,74.98
2019-04-27T21:48:00.897Z,75.98
2019-04-27T21:50:35.834Z,76.34
2019-04-27T21:53:08.221Z,76.64
2019-04-27T21:55:39.686Z,75.46
2019-04-27T21:58:11.621Z,74.46
2019-04-27T22:01:03.604Z,74.55
2019-04-27T22:03:36.126Z,72.74
2019-04-27T22:06:08.489Z,71.61
2019-04-27T22:08:55.744Z,73.95
2019-04-27T22:11:32.222Z,73.63
2019-04-27T22:14:05.728Z,74.42
2019-04-27T22:16:41.614Z,74.51
2019-04-27T22:19:12.637Z,74.23
2019-04-27T22:21:52.722Z,72.74
2019-04-27T22:24:42.843Z,73.28
2019-04-27T22:27:14.150Z,71.71
2019-04-27T22:29:52.738Z,69.00
2019-04-27T22:32:23.281Z,64.73
2019-04-27T22:34:54.454Z,65.37
2019-04-27T22:37:35.099Z,65.47
2019-04-27T22:40:11.511Z,67.66
2019-04-27T22:42:57.309Z,66.44
2019-04-27T22:45:29.771Z,64.90
2019-04-27T22:48:01.279Z,65.66
2019-04-27T22:50:31.941Z,67.24
2019-04-27T22:53:10.491Z,63.60
2019-04-27T22:56:11.177Z,66.29
2019-04-27T22:58:58.577Z,68.55
2019-04-27T23:01:30.123Z,70.62
2019-04-27T23:04:03.326Z,70.58
2019-04-27T23:06:36.247Z,72.61
2019-04-27T23:09:14.919Z,72.09
2019-04-27T23:11:47.015Z,72.96
2019-04-27T23:14:31.292Z,74.51
2019-04-27T23:17:15.423Z,75.22
2019-04-27T23:19:48.556Z,73.50
2019-04-27T23:22:24.448Z,74.83
2019-04-27T23:24:55.197Z,76.00
2019-04-27T23:27:26.201Z,75.29
2019-04-27T23:29:56.807Z,75.29
2019-04-27T23:32:36.394Z,74.12
2019-04-27T23:35:07.699Z,72.76
2019-04-27T23:37:38.464Z,73.19
2019-04-27T23:40:11.175Z,74.10
2019-04-27T23:43:01.713Z,74.16
2019-04-27T23:45:32.487Z,73.93
2019-04-27T23:48:25.036Z,70.93
2019-04-27T23:51:08.163Z,71.95
2019-04-27T23:53:41.683Z,72.12
2019-04-27T23:56:12.280Z,71.79
2019-04-27T23:58:42.978Z,72.31
